createdAt,value
2023-05-09T00:01:30.289Z,99790.23
2023-05-09T00:03:05.347Z,99789.91
2023-05-09T00:04:35.501Z,99785.05
2023-05-09T00:06:02.104Z,99786.42
2023-05-09T00:07:36.002Z,99790.11
2023-05-09T00:08:59.990Z,99789.14
2023-05-09T00:10:21.469Z,99791.27
2023-05-09T00:11:55.032Z,99784.38
2023-05-09T00:13:16.379Z,99785.91
2023-05-09T00:15:01.052Z,99784.65
2023-05-09T00:16:25.217Z,99783.71
2023-05-09T00:17:54.976Z,99778.80
2023-05-09T00:19:24.444Z,99781.09
2023-05-09T00:21:05.493Z,99781.08
2023-05-09T00:22:30.468Z,99781.45
2023-05-09T00:24:02.404Z,99779.62
2023-05-09T00:25:26.061Z,99778.85
2023-05-09T00:26:48.476Z,99781.84
2023-05-09T00:28:21.449Z,99778.62
2023-05-09T00:29:52.984Z,99782.63
2023-05-09T00:31:14.741Z,99782.91
2023-05-09T00:32:41.192Z,99779.23
2023-05-09T00:34:05.806Z,99781.10
2023-05-09T00:35:35.059Z,99778.60
2023-05-09T00:37:07.064Z,99778.69
2023-05-09T00:38:28.988Z,99776.89
2023-05-09T00:40:02.570Z,99780.42
2023-05-09T00:41:24.505Z,99778.63
2023-05-09T00:42:58.198Z,99778.77
2023-05-09T00:44:27.256Z,99777.70
2023-05-09T00:46:01.208Z,99778.33
2023-05-09T00:47:23.081Z,99769.83
2023-05-09T00:48:52.376Z,99776.44
2023-05-09T00:50:16.169Z,99773.80
2023-05-09T00:51:38.024Z,99773.15
2023-05-09T00:53:13.715Z,99771.66
2023-05-09T00:54:38.097Z,99771.69
2023-05-09T00:56:02.245Z,99772.29
2023-05-09T00:57:24.273Z,99774.66
2023-05-09T00:58:59.944Z,99773.26
2023-05-09T01:00:33.156Z,99769.49
2023-05-09T01:02:08.998Z,99768.41
2023-05-09T01:03:31.255Z,99768.88
2023-05-09T01:04:53.315Z,99769.52
2023-05-09T01:06:17.751Z,99766.64
2023-05-09T01:07:39.633Z,99766.09
2023-05-09T01:09:07.290Z,99768.34
2023-05-09T01:10:29.172Z,99772.48
2023-05-09T01:11:51.044Z,99769.17
2023-05-09T01:13:12.697Z,99769.14
2023-05-09T01:14:36.498Z,99765.74
2023-05-09T01:16:12.365Z,99768.30
2023-05-09T01:17:34.127Z,99767.27
2023-05-09T01:19:06.333Z,99766.55
2023-05-09T01:20:28.601Z,99765.11
2023-05-09T01:21:57.777Z,99763.18
2023-05-09T01:23:22.052Z,99762.67
2023-05-09T01:24:48.642Z,99761.34
2023-05-09T01:26:12.961Z,99759.69
2023-05-09T01:27:44.664Z,99755.79
2023-05-09T01:29:06.627Z,99755.98
2023-05-09T01:30:30.477Z,99752.11
2023-05-09T01:31:59.597Z,99754.92
2023-05-09T01:33:20.983Z,99754.59
2023-05-09T01:34:42.967Z,99752.42
2023-05-09T01:36:05.173Z,99754.60
2023-05-09T01:37:29.326Z,99753.50
2023-05-09T01:38:51.151Z,99752.30
2023-05-09T01:40:12.615Z,99752.64
2023-05-09T01:41:34.130Z,99745.70
2023-05-09T01:42:56.138Z,99739.39
2023-05-09T01:44:20.586Z,99754.25
2023-05-09T01:45:50.101Z,99750.52
2023-05-09T01:47:23.688Z,99752.71
2023-05-09T01:48:45.077Z,99750.83
2023-05-09T01:50:08.832Z,99750.79
2023-05-09T01:51:31.169Z,99749.00
2023-05-09T01:52:55.093Z,99747.75
2023-05-09T01:54:26.250Z,99748.26
2023-05-09T01:55:59.864Z,99744.20
2023-05-09T01:57:21.110Z,99743.19
2023-05-09T01:58:48.201Z,99738.36
2023-05-09T02:00:12.917Z,99743.83
2023-05-09T02:01:52.569Z,99740.98
2023-05-09T02:03:14.174Z,99740.92
2023-05-09T02:04:36.181Z,99742.86
2023-05-09T02:05:57.875Z,99738.21
2023-05-09T02:07:19.660Z,99739.02
2023-05-09T02:08:45.932Z,99735.36
2023-05-09T02:10:30.034Z,99737.37
2023-05-09T02:11:52.947Z,99735.27
2023-05-09T02:13:26.903Z,99735.83
2023-05-09T02:14:51.393Z,99732.75
2023-05-09T02:16:15.610Z,99737.39
2023-05-09T02:17:39.697Z,99737.30
2023-05-09T02:19:02.053Z,99735.12
2023-05-09T02:20:42.228Z,99735.17
2023-05-09T02:22:12.991Z,99731.41
2023-05-09T02:23:34.674Z,99732.48
2023-05-09T02:25:01.241Z,99732.70
2023-05-09T02:26:32.298Z,99729.46
2023-05-09T02:28:05.804Z,99734.23
2023-05-09T02:29:30.170Z,99723.36
2023-05-09T02:31:06.056Z,99735.05
2023-05-09T02:32:30.198Z,99739.34
2023-05-09T02:33:52.780Z,99739.27
2023-05-09T02:35:22.326Z,99736.17
2023-05-09T02:36:51.601Z,99738.29
2023-05-09T02:38:23.046Z,99737.50
2023-05-09T02:39:44.592Z,99741.71
2023-05-09T02:41:14.170Z,99740.85
2023-05-09T02:42:36.134Z,99740.70
2023-05-09T02:44:17.202Z,99741.14
2023-05-09T02:45:41.372Z,99742.95
2023-05-09T02:47:03.535Z,99739.89
2023-05-09T02:48:25.657Z,99735.30
2023-05-09T02:49:59.616Z,99729.03
2023-05-09T02:51:24.147Z,99735.12
2023-05-09T02:52:57.648Z,99736.94
2023-05-09T02:54:21.601Z,99735.11
2023-05-09T02:55:45.752Z,99736.62
2023-05-09T02:57:09.859Z,99739.31
2023-05-09T02:58:55.610Z,99737.78
2023-05-09T03:00:31.505Z,99740.02
2023-05-09T03:01:55.895Z,99739.23
2023-05-09T03:03:31.842Z,99739.95
2023-05-09T03:04:54.057Z,99738.70
2023-05-09T03:06:39.318Z,99737.88
2023-05-09T03:08:03.584Z,99739.59
2023-05-09T03:09:32.704Z,99735.42
2023-05-09T03:10:57.191Z,99734.55
2023-05-09T03:12:19.131Z,99733.24
2023-05-09T03:13:43.393Z,99735.85
2023-05-09T03:15:07.908Z,99732.22
2023-05-09T03:16:31.808Z,99734.91
2023-05-09T03:18:01.723Z,99734.33
2023-05-09T03:19:26.424Z,99736.89
2023-05-09T03:20:48.469Z,99731.41
2023-05-09T03:22:19.203Z,99737.39
2023-05-09T03:24:02.824Z,99727.52
2023-05-09T03:25:38.361Z,99729.13
2023-05-09T03:27:11.572Z,99730.54
2023-05-09T03:28:35.995Z,99729.90
2023-05-09T03:29:59.870Z,99733.40
2023-05-09T03:31:21.004Z,99734.40
2023-05-09T03:32:50.212Z,99730.36
2023-05-09T03:34:17.171Z,99729.36
2023-05-09T03:35:41.430Z,99735.02
2023-05-09T03:37:11.211Z,99740.02
2023-05-09T03:38:35.154Z,99739.14
2023-05-09T03:40:09.003Z,99741.34
2023-05-09T03:41:36.316Z,99733.89
2023-05-09T03:43:10.028Z,99740.73
2023-05-09T03:44:34.006Z,99738.83
2023-05-09T03:46:04.060Z,99740.49
2023-05-09T03:47:26.390Z,99735.41
2023-05-09T03:48:48.669Z,99738.23
2023-05-09T03:50:21.823Z,99739.77
2023-05-09T03:51:54.122Z,99737.19
2023-05-09T03:53:18.823Z,99739.11
2023-05-09T03:54:52.947Z,99735.70
2023-05-09T03:56:16.687Z,99728.86
2023-05-09T03:57:42.494Z,99737.39
2023-05-09T03:59:11.956Z,99736.75
2023-05-09T04:00:36.171Z,99736.13
2023-05-09T04:02:03.303Z,99736.27
2023-05-09T04:03:25.034Z,99734.00
2023-05-09T04:04:54.743Z,99734.45
2023-05-09T04:06:24.021Z,99735.66
2023-05-09T04:07:53.063Z,99731.79
2023-05-09T04:09:15.673Z,99733.39
2023-05-09T04:10:37.397Z,99733.34
2023-05-09T04:12:01.383Z,99736.73
2023-05-09T04:13:31.771Z,99737.52
2023-05-09T04:14:56.447Z,99735.60
2023-05-09T04:16:19.171Z,99736.72
2023-05-09T04:17:40.769Z,99737.56
2023-05-09T04:19:02.634Z,99738.27
2023-05-09T04:20:32.902Z,99737.07
2023-05-09T04:22:18.042Z,99737.61
2023-05-09T04:23:45.124Z,99737.67
2023-05-09T04:25:28.222Z,99736.70
2023-05-09T04:26:53.111Z,99738.84
2023-05-09T04:28:28.547Z,99739.69
2023-05-09T04:29:51.556Z,99731.02
2023-05-09T04:31:21.200Z,99739.67
2023-05-09T04:32:46.142Z,99736.73
2023-05-09T04:34:08.064Z,99738.73
2023-05-09T04:35:32.519Z,99738.54
2023-05-09T04:37:02.221Z,99742.96
2023-05-09T04:38:43.365Z,99739.27
2023-05-09T04:40:15.999Z,99738.92
2023-05-09T04:41:44.393Z,99741.12
2023-05-09T04:43:20.151Z,99740.59
2023-05-09T04:44:42.419Z,99741.27
2023-05-09T04:46:04.460Z,99742.22
2023-05-09T04:47:34.016Z,99739.45
2023-05-09T04:49:03.720Z,99742.31
2023-05-09T04:50:39.575Z,99738.83
2023-05-09T04:52:12.451Z,99738.65
2023-05-09T04:53:54.582Z,99742.92
2023-05-09T04:55:19.412Z,99745.27
2023-05-09T04:57:13.751Z,99734.93
2023-05-09T04:58:41.873Z,99742.16
2023-05-09T05:00:07.349Z,99748.05
2023-05-09T05:01:32.604Z,99741.15
2023-05-09T05:02:54.721Z,99741.79
2023-05-09T05:04:18.471Z,99748.29
2023-05-09T05:05:52.404Z,99744.55
2023-05-09T05:07:37.540Z,99747.17
2023-05-09T05:09:02.834Z,99746.34
2023-05-09T05:10:36.353Z,99747.33
2023-05-09T05:12:09.805Z,99751.25
2023-05-09T05:13:34.513Z,99750.61
2023-05-09T05:15:19.764Z,99750.23
2023-05-09T05:16:56.877Z,99751.94
2023-05-09T05:18:30.207Z,99749.13
2023-05-09T05:20:02.997Z,99748.34
2023-05-09T05:21:37.044Z,99747.34
2023-05-09T05:23:22.020Z,99746.45
2023-05-09T05:24:46.597Z,99743.64
2023-05-09T05:26:20.132Z,99744.30
2023-05-09T05:27:44.805Z,99744.08
2023-05-09T05:29:10.738Z,99742.58
2023-05-09T05:30:35.477Z,99740.41
2023-05-09T05:31:57.766Z,99739.77
2023-05-09T05:33:31.140Z,99737.90
2023-05-09T05:34:53.748Z,99738.06
2023-05-09T05:36:15.353Z,99738.34
2023-05-09T05:37:49.186Z,99736.92
2023-05-09T05:39:42.309Z,99741.39
2023-05-09T05:41:18.672Z,99738.52
2023-05-09T05:42:41.074Z,99738.66
2023-05-09T05:44:10.264Z,99738.30
2023-05-09T05:45:44.128Z,99738.61
2023-05-09T05:47:17.785Z,99740.30
2023-05-09T05:48:40.392Z,99739.52
2023-05-09T05:50:16.100Z,99741.29
2023-05-09T05:51:45.692Z,99742.36
2023-05-09T05:53:26.894Z,99739.12
2023-05-09T05:55:12.263Z,99739.45
2023-05-09T05:56:51.474Z,99737.02
2023-05-09T05:58:13.036Z,99739.91
2023-05-09T05:59:49.428Z,99737.95
2023-05-09T06:01:18.601Z,99736.59
2023-05-09T06:02:52.360Z,99733.14
2023-05-09T06:04:32.453Z,99734.70
2023-05-09T06:05:54.676Z,99734.69
2023-05-09T06:07:18.204Z,99738.23
2023-05-09T06:09:01.226Z,99735.32
2023-05-09T06:10:45.974Z,99739.68
2023-05-09T06:12:17.346Z,99734.85
2023-05-09T06:13:48.825Z,99735.98
2023-05-09T06:15:11.352Z,99740.09
2023-05-09T06:16:46.545Z,99742.39
2023-05-09T06:18:22.517Z,99738.83
2023-05-09T06:19:54.108Z,99737.41
2023-05-09T06:21:16.007Z,99734.12
2023-05-09T06:22:45.372Z,99734.77
2023-05-09T06:24:27.480Z,99730.11
2023-05-09T06:26:01.195Z,99729.95
2023-05-09T06:27:25.544Z,99729.88
2023-05-09T06:28:50.043Z,99726.27
2023-05-09T06:30:24.755Z,99724.08
2023-05-09T06:31:48.482Z,99727.58
2023-05-09T06:33:21.653Z,99718.92
2023-05-09T06:34:48.154Z,99726.45
2023-05-09T06:36:12.186Z,99728.39
2023-05-09T06:37:33.804Z,99722.59
2023-05-09T06:38:58.767Z,99725.30
2023-05-09T06:40:29.664Z,99720.11
2023-05-09T06:41:58.701Z,99724.14
2023-05-09T06:43:32.875Z,99725.90
2023-05-09T06:45:02.615Z,99721.54
2023-05-09T06:46:26.586Z,99722.86
2023-05-09T06:47:51.188Z,99720.13
2023-05-09T06:49:14.207Z,99723.96
2023-05-09T06:50:38.375Z,99720.36
2023-05-09T06:52:00.175Z,99719.02
2023-05-09T06:53:29.574Z,99715.26
2023-05-09T06:54:59.787Z,99713.23
2023-05-09T06:56:22.674Z,99712.92
2023-05-09T06:57:44.232Z,99709.52
2023-05-09T06:59:20.204Z,99711.40
2023-05-09T07:00:41.772Z,99709.56
2023-05-09T07:02:06.386Z,99709.02
2023-05-09T07:03:28.204Z,99711.34
2023-05-09T07:04:50.223Z,99712.77
2023-05-09T07:06:11.590Z,99711.05
2023-05-09T07:07:35.532Z,99713.98
2023-05-09T07:08:57.443Z,99716.85
2023-05-09T07:10:18.907Z,99716.05
2023-05-09T07:11:50.447Z,99710.64
2023-05-09T07:13:12.168Z,99710.67
2023-05-09T07:14:38.189Z,99705.83
2023-05-09T07:16:00.337Z,99709.08
2023-05-09T07:17:24.408Z,99704.89
2023-05-09T07:18:46.464Z,99698.83
2023-05-09T07:20:08.409Z,99703.13
2023-05-09T07:21:37.440Z,99695.88
2023-05-09T07:23:07.020Z,99696.46
2023-05-09T07:24:28.940Z,99698.15
2023-05-09T07:25:51.024Z,99691.61
2023-05-09T07:27:12.518Z,99696.11
2023-05-09T07:28:43.533Z,99695.97
2023-05-09T07:30:13.262Z,99698.08
2023-05-09T07:31:47.222Z,99688.85
2023-05-09T07:33:08.899Z,99693.64
2023-05-09T07:34:32.615Z,99692.80
2023-05-09T07:35:57.150Z,99696.02
2023-05-09T07:37:26.161Z,99694.83
2023-05-09T07:38:52.903Z,99690.13
2023-05-09T07:40:26.414Z,99690.80
2023-05-09T07:41:50.690Z,99684.50
2023-05-09T07:43:12.634Z,99683.19
2023-05-09T07:44:46.187Z,99682.50
2023-05-09T07:46:07.976Z,99686.80
2023-05-09T07:47:30.088Z,99681.09
2023-05-09T07:48:56.939Z,99677.94
2023-05-09T07:50:33.189Z,99678.20
2023-05-09T07:51:55.358Z,99678.67
2023-05-09T07:53:16.712Z,99675.71
2023-05-09T07:54:40.837Z,99680.38
2023-05-09T07:56:03.013Z,99677.90
2023-05-09T07:57:32.464Z,99671.27
2023-05-09T07:58:55.866Z,99673.71
2023-05-09T08:00:29.801Z,99670.27
2023-05-09T08:01:51.744Z,99663.71
2023-05-09T08:03:20.896Z,99664.34
2023-05-09T08:04:56.059Z,99655.73
2023-05-09T08:06:19.825Z,99668.36
2023-05-09T08:07:41.776Z,99669.30
2023-05-09T08:09:04.490Z,99658.89
2023-05-09T08:10:33.563Z,99655.13
2023-05-09T08:11:55.631Z,99660.00
2023-05-09T08:13:19.511Z,99658.84
2023-05-09T08:14:41.321Z,99660.16
2023-05-09T08:16:03.661Z,99657.17
2023-05-09T08:17:25.472Z,99658.08
2023-05-09T08:18:54.551Z,99657.20
2023-05-09T08:20:16.075Z,99661.71
2023-05-09T08:21:51.872Z,99659.71
2023-05-09T08:23:21.003Z,99651.38
2023-05-09T08:24:43.038Z,99650.38
2023-05-09T08:26:05.481Z,99649.80
2023-05-09T08:27:26.910Z,99651.38
2023-05-09T08:28:49.610Z,99648.38
2023-05-09T08:30:11.414Z,99650.50
2023-05-09T08:31:32.954Z,99646.71
2023-05-09T08:32:57.273Z,99643.06
2023-05-09T08:34:21.238Z,99643.75
2023-05-09T08:37:42.372Z,99635.16
2023-05-09T08:39:11.425Z,99632.41
2023-05-09T08:40:33.481Z,99632.92
2023-05-09T08:42:07.293Z,99637.58
2023-05-09T08:43:31.418Z,99636.88
2023-05-09T08:44:53.385Z,99632.78
2023-05-09T08:46:26.586Z,99622.25
2023-05-09T08:47:55.580Z,99620.44
2023-05-09T08:49:17.179Z,99631.47
2023-05-09T08:50:41.117Z,99626.54
2023-05-09T08:52:05.167Z,99626.07
2023-05-09T08:53:27.112Z,99621.33
2023-05-09T08:54:53.481Z,99621.02
2023-05-09T08:56:17.345Z,99612.35
2023-05-09T08:57:38.908Z,99620.02
2023-05-09T08:59:00.834Z,99618.10
2023-05-09T09:00:22.696Z,99612.03
2023-05-09T09:01:44.543Z,99619.90
2023-05-09T09:03:06.520Z,99617.29
2023-05-09T09:04:39.649Z,99617.61
2023-05-09T09:06:09.211Z,99613.16
2023-05-09T09:07:33.041Z,99609.65
2023-05-09T09:08:55.044Z,99618.23
2023-05-09T09:10:16.736Z,99615.39
2023-05-09T09:11:39.085Z,99616.41
2023-05-09T09:13:03.289Z,99611.46
2023-05-09T09:14:40.097Z,99620.39
2023-05-09T09:16:15.983Z,99615.55
2023-05-09T09:17:39.972Z,99613.63
2023-05-09T09:19:01.965Z,99618.09
2023-05-09T09:20:30.830Z,99612.31
2023-05-09T09:21:56.166Z,99611.90
2023-05-09T09:23:17.697Z,99608.84
2023-05-09T09:24:39.181Z,99606.05
2023-05-09T09:26:03.294Z,99606.31
2023-05-09T09:27:25.277Z,99601.25
2023-05-09T09:28:47.221Z,99597.36
2023-05-09T09:30:08.764Z,99602.52
2023-05-09T09:31:30.508Z,99602.90
2023-05-09T09:32:54.702Z,99605.23
2023-05-09T09:34:16.185Z,99601.21
2023-05-09T09:35:38.061Z,99603.61
2023-05-09T09:37:02.306Z,99607.63
2023-05-09T09:38:31.162Z,99603.32
2023-05-09T09:39:53.522Z,99594.52
2023-05-09T09:41:15.324Z,99602.02
2023-05-09T09:42:37.958Z,99598.13
2023-05-09T09:43:59.968Z,99591.05
2023-05-09T09:45:21.889Z,99591.42
2023-05-09T09:46:51.501Z,99598.38
2023-05-09T09:48:15.496Z,99597.46
2023-05-09T09:49:37.232Z,99598.84
2023-05-09T09:50:58.991Z,99598.55
2023-05-09T09:52:20.812Z,99595.55
2023-05-09T09:53:49.955Z,99593.38
2023-05-09T09:55:13.604Z,99589.09
2023-05-09T09:56:36.125Z,99590.08
2023-05-09T09:57:57.921Z,99588.73
2023-05-09T09:59:19.403Z,99586.30
2023-05-09T10:00:43.894Z,99582.04
2023-05-09T10:02:15.107Z,99576.77
2023-05-09T10:03:44.337Z,99581.19
2023-05-09T10:05:06.534Z,99582.20
2023-05-09T10:06:28.623Z,99582.30
2023-05-09T10:07:53.380Z,99577.58
2023-05-09T10:09:22.478Z,99578.38
2023-05-09T10:10:56.074Z,99576.51
2023-05-09T10:12:20.066Z,99581.10
2023-05-09T10:13:42.621Z,99578.18
2023-05-09T10:15:07.739Z,99575.68
2023-05-09T10:16:42.762Z,99574.97
2023-05-09T10:18:08.171Z,99576.71
2023-05-09T10:19:32.399Z,99568.80
2023-05-09T10:20:54.857Z,99569.98
2023-05-09T10:22:16.601Z,99566.98
2023-05-09T10:23:38.327Z,99561.84
2023-05-09T10:25:00.186Z,99566.45
2023-05-09T10:26:36.197Z,99566.40
2023-05-09T10:27:58.004Z,99569.33
2023-05-09T10:29:27.039Z,99554.21
2023-05-09T10:30:56.547Z,99561.29
2023-05-09T10:32:20.401Z,99554.47
2023-05-09T10:33:44.435Z,99556.70
2023-05-09T10:35:06.885Z,99557.84
2023-05-09T10:36:29.329Z,99551.43
2023-05-09T10:37:51.170Z,99556.52
2023-05-09T10:39:20.205Z,99548.23
2023-05-09T10:40:42.008Z,99546.83
2023-05-09T10:42:04.083Z,99548.41
2023-05-09T10:43:28.339Z,99540.77
2023-05-09T10:44:49.973Z,99536.03
2023-05-09T10:46:11.573Z,99535.80
2023-05-09T10:47:35.842Z,99525.58
2023-05-09T10:48:57.523Z,99525.95
2023-05-09T10:50:39.202Z,99527.11
2023-05-09T10:52:03.657Z,99524.40
2023-05-09T10:53:28.398Z,99523.04
2023-05-09T10:54:59.640Z,99524.70
2023-05-09T10:56:29.265Z,99517.05
2023-05-09T10:57:50.866Z,99518.56
2023-05-09T10:59:12.613Z,99514.83
2023-05-09T11:00:36.812Z,99509.83
2023-05-09T11:02:10.015Z,99497.55
2023-05-09T11:03:34.270Z,99509.45
2023-05-09T11:04:56.211Z,99507.61
2023-05-09T11:06:17.973Z,99509.08
2023-05-09T11:07:40.000Z,99515.48
2023-05-09T11:09:11.502Z,99506.30
2023-05-09T11:10:35.386Z,99505.22
2023-05-09T11:11:57.379Z,99498.50
2023-05-09T11:13:23.813Z,99494.27
2023-05-09T11:15:05.481Z,99496.85
2023-05-09T11:16:27.940Z,99489.98
2023-05-09T11:17:49.510Z,99490.36
2023-05-09T11:19:11.268Z,99488.31
2023-05-09T11:20:35.869Z,99495.02
2023-05-09T11:22:00.447Z,99489.92
2023-05-09T11:23:22.273Z,99488.85
2023-05-09T11:24:51.365Z,99486.80
2023-05-09T11:26:20.662Z,99483.62
2023-05-09T11:27:43.247Z,99476.06
2023-05-09T11:29:10.140Z,99478.57
2023-05-09T11:30:32.150Z,99485.36
2023-05-09T11:31:54.646Z,99481.32
2023-05-09T11:33:16.453Z,99479.08
2023-05-09T11:34:38.249Z,99480.77
2023-05-09T11:36:00.688Z,99476.66
2023-05-09T11:37:29.594Z,99472.42
2023-05-09T11:38:51.500Z,99469.89
2023-05-09T11:40:15.702Z,99465.89
2023-05-09T11:41:39.745Z,99464.27
2023-05-09T11:43:02.394Z,99465.98
2023-05-09T11:44:38.836Z,99463.85
2023-05-09T11:46:05.488Z,99466.22
2023-05-09T11:47:29.472Z,99459.67
2023-05-09T11:49:14.587Z,99458.63
2023-05-09T11:50:48.259Z,99458.26
2023-05-09T11:52:21.858Z,99453.60
2023-05-09T11:53:47.105Z,99445.59
2023-05-09T11:55:31.492Z,99445.70
2023-05-09T11:57:17.058Z,99444.51
2023-05-09T11:59:02.024Z,99442.31
2023-05-09T12:00:46.171Z,99436.38
2023-05-09T12:02:15.922Z,99439.58
2023-05-09T12:03:45.091Z,99430.67
2023-05-09T12:05:20.042Z,99434.73
2023-05-09T12:06:43.273Z,99432.14
2023-05-09T12:08:10.615Z,99432.54
2023-05-09T12:09:37.768Z,99433.46
2023-05-09T12:10:59.787Z,99431.15
2023-05-09T12:12:33.473Z,99430.33
2023-05-09T12:13:55.398Z,99429.86
2023-05-09T12:15:20.064Z,99432.63
2023-05-09T12:16:44.068Z,99435.76
2023-05-09T12:18:08.638Z,99434.11
2023-05-09T12:19:32.964Z,99429.02
2023-05-09T12:20:54.743Z,99423.20
2023-05-09T12:22:19.266Z,99422.79
2023-05-09T12:23:54.877Z,99419.55
2023-05-09T12:25:16.993Z,99413.96
2023-05-09T12:26:41.113Z,99405.52
2023-05-09T12:28:14.949Z,99403.11
2023-05-09T12:29:48.782Z,99404.69
2023-05-09T12:31:12.506Z,99400.15
2023-05-09T12:32:36.629Z,99397.61
2023-05-09T12:34:01.636Z,99396.45
2023-05-09T12:35:30.998Z,99396.66
2023-05-09T12:37:00.189Z,99392.05
2023-05-09T12:38:26.479Z,99395.34
2023-05-09T12:39:50.496Z,99392.38
2023-05-09T12:41:41.376Z,99385.74
2023-05-09T12:43:18.041Z,99384.48
2023-05-09T12:44:39.635Z,99385.31
2023-05-09T12:46:02.260Z,99383.71
2023-05-09T12:47:47.297Z,99372.55
2023-05-09T12:49:11.856Z,99374.21
2023-05-09T12:50:36.494Z,99371.15
2023-05-09T12:52:07.740Z,99369.98
2023-05-09T12:53:54.108Z,99365.71
2023-05-09T12:55:23.445Z,99364.35
2023-05-09T12:56:46.776Z,99364.80
2023-05-09T12:58:11.296Z,99362.38
2023-05-09T12:59:42.575Z,99363.95
2023-05-09T13:01:18.701Z,99356.67
2023-05-09T13:02:42.705Z,99356.25
2023-05-09T13:04:07.485Z,99350.59
2023-05-09T13:05:50.656Z,99348.13
2023-05-09T13:07:12.235Z,99352.54
2023-05-09T13:08:35.916Z,99348.73
2023-05-09T13:10:05.619Z,99349.73
2023-05-09T13:11:38.890Z,99347.80
2023-05-09T13:13:14.672Z,99349.95
2023-05-09T13:14:47.950Z,99343.30
2023-05-09T13:16:11.161Z,99343.44
2023-05-09T13:17:45.686Z,99336.88
2023-05-09T13:19:07.965Z,99340.16
2023-05-09T13:20:36.931Z,99337.88
2023-05-09T13:21:59.199Z,99337.80
2023-05-09T13:23:32.637Z,99329.54
2023-05-09T13:25:01.827Z,99334.41
2023-05-09T13:26:23.559Z,99332.48
2023-05-09T13:27:46.021Z,99324.27
2023-05-09T13:29:07.893Z,99330.92
2023-05-09T13:30:29.569Z,99329.73
2023-05-09T13:31:52.101Z,99331.69
2023-05-09T13:33:25.245Z,99330.27
2023-05-09T13:34:57.984Z,99324.47
2023-05-09T13:36:19.815Z,99323.30
2023-05-09T13:37:49.680Z,99320.66
2023-05-09T13:39:11.879Z,99322.10
2023-05-09T13:40:35.871Z,99315.96
2023-05-09T13:42:09.162Z,99308.98
2023-05-09T13:43:32.972Z,99310.19
2023-05-09T13:44:57.270Z,99309.58
2023-05-09T13:46:44.331Z,99310.17
2023-05-09T13:48:08.969Z,99304.62
2023-05-09T13:49:38.210Z,99300.86
2023-05-09T13:51:01.301Z,99305.09
2023-05-09T13:52:24.855Z,99309.00
2023-05-09T13:53:48.667Z,99304.87
2023-05-09T13:55:14.871Z,99298.05
2023-05-09T13:56:36.948Z,99298.54
2023-05-09T13:57:59.037Z,99297.52
2023-05-09T13:59:20.576Z,99296.39
2023-05-09T14:00:46.810Z,99293.42
2023-05-09T14:02:08.768Z,99293.48
2023-05-09T14:03:30.635Z,99290.48
2023-05-09T14:04:54.553Z,99288.23
2023-05-09T14:06:18.790Z,99291.55
2023-05-09T14:07:54.720Z,99289.90
2023-05-09T14:09:41.489Z,99287.95
2023-05-09T14:11:11.018Z,99284.42
2023-05-09T14:12:40.843Z,99286.19
2023-05-09T14:14:16.798Z,99284.74
2023-05-09T14:16:01.368Z,99282.30
2023-05-09T14:17:46.854Z,99278.13
2023-05-09T14:19:08.750Z,99270.38
2023-05-09T14:20:42.201Z,99270.27
2023-05-09T14:22:20.268Z,99259.30
2023-05-09T14:23:55.900Z,99269.59
2023-05-09T14:25:17.937Z,99266.90
2023-05-09T14:26:40.079Z,99268.25
2023-05-09T14:28:10.431Z,99267.02
2023-05-09T14:29:46.097Z,99264.19
2023-05-09T14:31:28.673Z,99268.52
2023-05-09T14:32:50.846Z,99266.73
2023-05-09T14:34:24.018Z,99265.61
2023-05-09T14:36:09.130Z,99264.09
2023-05-09T14:37:44.960Z,99263.93
2023-05-09T14:39:20.416Z,99261.78
2023-05-09T14:40:42.302Z,99264.29
2023-05-09T14:42:17.493Z,99261.73
2023-05-09T14:43:41.306Z,99263.53
2023-05-09T14:45:03.512Z,99260.98
2023-05-09T14:46:29.992Z,99258.19
2023-05-09T14:47:59.083Z,99257.56
2023-05-09T14:49:27.923Z,99254.05
2023-05-09T14:50:56.764Z,99252.02
2023-05-09T14:52:32.805Z,99251.05
2023-05-09T14:54:06.066Z,99249.02
2023-05-09T14:55:39.324Z,99252.55
2023-05-09T14:57:08.984Z,99245.65
2023-05-09T14:58:32.997Z,99242.98
2023-05-09T14:59:59.064Z,99242.62
2023-05-09T15:01:30.562Z,99239.46
2023-05-09T15:02:54.583Z,99239.19
2023-05-09T15:04:28.381Z,99236.42
2023-05-09T15:06:02.466Z,99234.89
2023-05-09T15:07:35.877Z,99233.75
2023-05-09T15:09:02.426Z,99233.59
2023-05-09T15:10:31.898Z,99228.91
2023-05-09T15:12:05.299Z,99218.26
2023-05-09T15:13:27.335Z,99219.05
2023-05-09T15:14:48.865Z,99216.08
2023-05-09T15:16:12.992Z,99214.01
2023-05-09T15:17:41.930Z,99208.77
2023-05-09T15:19:15.437Z,99214.91
2023-05-09T15:20:37.422Z,99216.55
2023-05-09T15:22:10.827Z,99210.36
2023-05-09T15:23:32.773Z,99216.33
2023-05-09T15:24:54.906Z,99211.45
2023-05-09T15:26:16.973Z,99212.77
2023-05-09T15:27:50.517Z,99207.80
2023-05-09T15:29:19.740Z,99193.38
2023-05-09T15:30:45.353Z,99198.81
2023-05-09T15:32:14.980Z,99192.85
2023-05-09T15:33:50.485Z,99199.00
2023-05-09T15:35:24.116Z,99192.64
2023-05-09T15:36:45.611Z,99191.88
2023-05-09T15:38:11.957Z,99190.95
2023-05-09T15:39:43.252Z,99191.80
2023-05-09T15:41:16.950Z,99189.47
2023-05-09T15:42:50.821Z,99184.48
2023-05-09T15:44:14.880Z,99186.53
2023-05-09T15:45:46.493Z,99183.60
2023-05-09T15:47:17.937Z,99177.78
2023-05-09T15:48:40.038Z,99179.89
2023-05-09T15:50:01.674Z,99180.79
2023-05-09T15:51:31.042Z,99178.08
2023-05-09T15:53:04.688Z,99177.60
2023-05-09T15:54:26.982Z,99174.92
2023-05-09T15:55:50.903Z,99167.78
2023-05-09T15:57:13.335Z,99175.99
2023-05-09T15:58:35.117Z,99175.67
2023-05-09T15:59:57.189Z,99174.52
2023-05-09T16:01:19.098Z,99172.75
2023-05-09T16:02:42.096Z,99172.30
2023-05-09T16:04:05.283Z,99175.81
2023-05-09T16:05:27.697Z,99170.48
2023-05-09T16:06:49.046Z,99165.82
2023-05-09T16:08:18.695Z,99168.27
2023-05-09T16:09:40.329Z,99162.48
2023-05-09T16:11:04.674Z,99160.81
2023-05-09T16:12:26.843Z,99162.95
2023-05-09T16:13:48.490Z,99161.39
2023-05-09T16:15:10.157Z,99162.92
2023-05-09T16:16:31.869Z,99155.70
2023-05-09T16:18:00.900Z,99152.42
2023-05-09T16:19:36.700Z,99151.83
2023-05-09T16:21:10.147Z,99144.31
2023-05-09T16:22:32.253Z,99148.83
2023-05-09T16:23:53.792Z,99143.31
2023-05-09T16:25:15.497Z,99141.88
2023-05-09T16:26:37.426Z,99143.20
2023-05-09T16:27:59.044Z,99142.08
2023-05-09T16:29:22.333Z,99138.77
2023-05-09T16:30:44.117Z,99135.60
2023-05-09T16:32:08.452Z,99131.16
2023-05-09T16:33:30.190Z,99130.23
2023-05-09T16:34:53.848Z,99130.72
2023-05-09T16:36:15.593Z,99124.88
2023-05-09T16:37:37.437Z,99129.52
2023-05-09T16:38:59.198Z,99131.30
2023-05-09T16:40:21.252Z,99120.55
2023-05-09T16:41:45.384Z,99122.72
2023-05-09T16:43:07.245Z,99122.21
2023-05-09T16:44:31.485Z,99121.70
2023-05-09T16:45:53.681Z,99122.29
2023-05-09T16:47:15.161Z,99119.73
2023-05-09T16:48:36.474Z,99122.72
2023-05-09T16:49:58.038Z,99123.35
2023-05-09T16:51:19.708Z,99122.77
2023-05-09T16:52:44.054Z,99118.06
2023-05-09T16:54:05.749Z,99115.87
2023-05-09T16:55:27.363Z,99116.75
2023-05-09T16:56:51.745Z,99113.32
2023-05-09T16:58:15.604Z,99111.91
2023-05-09T16:59:37.332Z,99109.73
2023-05-09T17:01:02.135Z,99106.49
2023-05-09T17:02:24.160Z,99108.41
2023-05-09T17:03:48.222Z,99106.66
2023-05-09T17:05:09.956Z,99111.50
2023-05-09T17:06:36.312Z,99111.79
2023-05-09T17:08:00.280Z,99115.33